• Join FlightAware (Why Join?)
  • Login
  • US Flag 
01:29PM EDT


 

Airport Tracker/Info


-or-


 

Live Flight TrackerFlight Track Log ✈ N584RJ ✈ 18-Jul-2013 ✈ 8A0 - KJKA

Flight Track Log - Related Links

Times and Time Zones

All times are in EDT time to prevent confusion due to time zone crossing. See the N584RJ flight status page for this flight to view local times or setup timezone preferences in your user account.

Time Position Orientation Groundspeed Altitude Reporting Facility
EDT Latitude Longitude Course Direction KTS MPH feet Rate Location/Type
06:02PM 34.1806 -86.2936 197° South 132 152 2,800  Level Atlanta Center
06:03PM 33.9668 -86.3542 180° South  Level Estimated
06:03PM 34.1428 -86.3053 194° South 141 162 3,800  Level Atlanta Center
06:04PM 33.9231 -86.3705 203° Southwest  Level Estimated
06:04PM 34.1050 -86.3242 202° Southwest 142 163 4,700  Level Atlanta Center
06:05PM 33.8793 -86.3869 197° South  Level Estimated
06:05PM 34.0669 -86.3458 205° Southwest 155 178 5,200  Level Atlanta Center
06:06PM 33.8355 -86.4026 197° South  Level FlightAware Approximate
06:06PM 34.0206 -86.3697 203° Southwest 183 211 5,200  Level Atlanta Center
06:07PM 33.7916 -86.4184 197° South  Level FlightAware Approximate
06:07PM 33.9742 -86.3908 201° Southwest 189 217 5,000  Level Atlanta Center
06:08PM 33.7477 -86.4342 197° South  Level FlightAware Approximate
06:08PM 33.9258 -86.4122 200° South 187 215 5,200  Level Atlanta Center
06:09PM 33.8797 -86.4283 196° South 154 177 6,000 660 Climbing Atlanta Center
06:10PM 33.8397 -86.4447 199° South 151 174 6,600 540 Climbing Atlanta Center
06:11PM 33.7975 -86.4586 195° South 158 182 7,200 540 Climbing Atlanta Center
06:12PM 33.7556 -86.4750 198° South 156 180 7,800 540 Climbing Atlanta Center
06:13PM 33.7156 -86.4961 204° Southwest 158 182 8,300 480 Climbing Atlanta Center
06:14PM 33.6714 -86.5050 190° South 156 180 8,800 420 Climbing Atlanta Center
06:15PM 33.6294 -86.5161 192° South 154 177 9,200 360 Climbing Atlanta Center
06:16PM 33.5833 -86.5300 194° South 157 181 9,600 360 Climbing Atlanta Center
06:17PM 33.5433 -86.5511 204° Southwest 160 184 10,000 240 Climbing Atlanta Center
06:18PM 33.5031 -86.5750 206° Southwest 164 189 10,100  Climbing Atlanta Center
06:19PM 33.4567 -86.6033 207° Southwest 174 200 10,100  Level Atlanta Center
06:20PM 33.4100 -86.6294 205° Southwest 180 207 10,100 -60 Level Atlanta Center
06:21PM 33.3658 -86.6531 204° Southwest 175 201 10,000  Descending Atlanta Center
06:22PM 33.3217 -86.6689 197° South 173 199 10,100 60 Climbing Atlanta Center
06:23PM 33.2733 -86.6850 196° South 163 188 10,200  Climbing Atlanta Center
06:24PM 33.2272 -86.6961 191° South 166 191 10,200  Level Atlanta Center
06:25PM 33.1811 -86.7044 189° South 170 196 10,200 -60 Level Atlanta Center
06:27PM 33.1292 -86.7032 179° South  Level FlightAware Approximate
06:34PM 32.8078 -86.7681 197° South  Level FlightAware Approximate
06:35PM 32.7639 -86.7835 197° South  Level FlightAware Approximate
06:36PM 32.7200 -86.7990 197° South  Level FlightAware Approximate
06:37PM 32.6761 -86.8145 197° South  Level FlightAware Approximate
06:37PM 32.6650 -86.9058 196° South 185 213 10,000  Level Atlanta Center
06:38PM 32.6322 -86.8299 197° South  Level FlightAware Approximate
06:38PM 32.6189 -86.9217 196° South 185 213 10,000  Level Atlanta Center
06:39PM 32.5883 -86.8454 196° South  Level FlightAware Approximate
06:39PM 32.5744 -86.9425 202° Southwest 185 213 10,100  Level Atlanta Center
06:40PM 32.5444 -86.8608 196° South  Level FlightAware Approximate
06:40PM 32.5325 -86.9583 198° South 180 207 10,100  Level Atlanta Center
06:41PM 32.5005 -86.8762 196° South  Level FlightAware Approximate
06:41PM 32.4839 -86.9739 195° South 175 201 10,100  Level Atlanta Center
06:42PM 32.4378 -86.9822 189° South 175 201 10,000  Descending Atlanta Center
06:43PM 32.3897 -86.9931 191° South 175 201 10,100  Climbing Atlanta Center
06:44PM 32.3372 -87.0036 190° South 175 201 10,100  Level Atlanta Center
06:45PM 32.2931 -87.0192 197° South 175 201 10,100  Level Atlanta Center
06:46PM 32.2467 -87.0397 201° Southwest 175 201 10,100  Level Atlanta Center
06:47PM 32.2042 -87.0631 205° Southwest 180 207 10,100  Level Atlanta Center
06:48PM 32.1600 -87.0836 202° Southwest 175 201 10,100 -60 Level Atlanta Center
06:49PM 32.1114 -87.1014 197° South 175 201 10,000 -60 Descending Atlanta Center
06:50PM 32.0653 -87.1122 191° South 175 201 10,000  Level Atlanta Center
06:51PM 32.0169 -87.1228 190° South 175 201 10,100  Climbing Atlanta Center
06:52PM 31.9708 -87.1308 188° South 175 201 10,100 -60 Level Atlanta Center
06:53PM 31.9225 -87.1464 195° South 181 208 10,000 -60 Descending Atlanta Center
06:54PM 31.8761 -87.1644 198° South 181 208 10,000  Level Atlanta Center
06:55PM 31.8297 -87.1847 200° South 181 208 10,100  Climbing Atlanta Center
06:56PM 31.7833 -87.2003 196° South 181 208 10,100 -60 Level Atlanta Center
06:57PM 31.7350 -87.2156 195° South 181 208 10,000 -60 Descending Atlanta Center
06:58PM 31.6847 -87.2286 192° South 181 208 10,000  Level Atlanta Center
06:59PM 31.6425 -87.2464 200° South 186 214 10,000  Level Atlanta Center
07:00PM 31.6022 -87.2553 191° South 182 209 10,000  Level Houston Center
07:01PM 31.5536 -87.2728 197° South 182 209 10,000  Level Houston Center
07:02PM 31.4656 -87.3058 198° South 189 217 10,000 -60 Level Jacksonville Center
07:03PM 31.4275 -87.3186 196° South 189 217 9,900  Descending Jacksonville Center
07:04PM 31.3747 -87.3356 195° South 189 217 10,000  Climbing Jacksonville Center
07:05PM 31.3222 -87.3475 191° South 189 217 9,900  Descending Jacksonville Center
07:06PM 31.2694 -87.3597 191° South 189 217 10,000 -60 Climbing Jacksonville Center
07:07PM 31.2169 -87.3742 193° South 189 217 9,800 -540 Descending Jacksonville Center
07:08PM 31.1600 -87.3861 190° South 194 223 9,000 -720 Descending Jacksonville Center
07:09PM 31.1069 -87.4103 201° Southwest 205 236 8,400 -540 Descending Jacksonville Center
07:10PM 31.0558 -87.4392 206° Southwest 210 242 8,000 -300 Descending Jacksonville Center
07:11PM 31.0031 -87.4586 198° South 210 242 7,900 -180 Descending Jacksonville Center
07:12PM 30.9522 -87.4753 196° South 204 235 7,700 -480 Descending Jacksonville Center
07:13PM 30.8956 -87.4847 188° South 204 235 7,000 -600 Descending Jacksonville Center
07:14PM 30.8408 -87.4967 191° South 204 235 6,600 -600 Descending Jacksonville Center
07:15PM 30.7861 -87.5083 190° South 204 235 5,800 -780 Descending Jacksonville Center
07:16PM 30.7353 -87.5300 200° South 204 235 5,100 -780 Descending Jacksonville Center
07:17PM 30.6822 -87.5542 201° Southwest 204 235 4,300 -780 Descending Jacksonville Center
07:19PM 30.5958 -87.5789 194° South 189 217 3,200 -540 Descending Jacksonville Center
07:20PM 30.5472 -87.5933 194° South 175 201 3,000 -120 Descending Jacksonville Center
07:21PM 30.5028 -87.6081 196° South 162 186 3,000  Level Jacksonville Center
07:22PM 30.4567 -87.6153 188° South 154 177 3,000  Level Jacksonville Center